Alice International Airport
KALI : now visible

Airfield :











YOU CAN JOIN US ON...

 
LOGIN :

Register | Disclaimer

   EN    FR    IT 

 









Legend :    VFR   Marginal VFR   IFR   Intensive IFR   Very Intensive IFR
Visi :
Ceiling :
>= 8 km
>= 3000ft
5 to 8 km
1000 to 3000 ft
1500m to 5 km
500 to 1000 ft
800 to 1500m
200 to 500 ft
< 800m
< 200 ft
Symbols :   Thunderstorms  Fog  Heavy snow  Heavy precipitations  Wind > 20 kt







- Airport Elevation : 178 ft


KALI - Alice International

CURRENT METAR :
  • 230953Z AUTO 15009KT 8SM OVC013 23/21 A2991 RMK AO2 SLP125 T02280211

EXPIRED METARs :
  • 230901Z AUTO 13008KT 8SM FEW009 BKN015 OVC032 22/21 A2991 RMK AO2 T02220211
  • 230853Z AUTO 13008KT 8SM SCT012 BKN018 OVC032 22/21 A2992 RMK AO2 SLP127 T02220211 56021
  • 230841Z AUTO 13008KT 8SM SCT010 BKN015 OVC034 22/21 A2992 RMK AO2 T02220211
  • 230826Z AUTO 14007KT 8SM SCT008 BKN014 OVC027 22/21 A2992 RMK AO2 T02220211
  • 230753Z AUTO 13007KT 8SM BKN008 OVC015 22/21 A2994 RMK AO2 CIG 006V012 SLP134 T02220211

TAF KALI
Valid from the 23 at 06:00 until the 24 at 06:00 UTC


230520Z 2306/2406 12009KT P6SM BKN014 OVC025
TEMPO 2310/2313 5SM -DZ BR OVC009
FM231400 14012G18KT P6SM BKN025 OVC200
FM231700 14018G25KT P6SM SCT030 BKN040 OVC200
FM240200 13011KT P6SM BKN014 OVC150
KZHU FIR / North America



MET'MAP, your aeronautical weather chart ! - Copyright ORBIFLY December 2007 - Disclaimer

ORBIFLY MET'MAP TEAM :

Programming & Development : Alexandra Zaïnal
Concept & Development : Baudouin d'Aumeries
Co-Development & Prog : Marc-Olivier Méhu
Technical & hardware support : Manuel Goepfert

Contact : metmap@orbifly.com




SOURCES & CREDITS :

   NOAA       Earth
Advisory